sensor_id;sensor_type;location;lat;lon;timestamp;temperature;humidity
64396;DHT22;50717;53.360;6.290;2023-10-31T00:00:26;10.30;99.90
64396;DHT22;50717;53.360;6.290;2023-10-31T00:02:52;10.60;99.90
64396;DHT22;50717;53.360;6.290;2023-10-31T00:05:18;10.30;99.90
64396;DHT22;50717;53.360;6.290;2023-10-31T00:07:43;10.70;99.90
64396;DHT22;50717;53.360;6.290;2023-10-31T00:10:09;10.40;99.90
64396;DHT22;50717;53.360;6.290;2023-10-31T00:12:35;10.80;99.90
64396;DHT22;50717;53.360;6.290;2023-10-31T00:15:00;10.60;99.90
64396;DHT22;50717;53.360;6.290;2023-10-31T00:17:26;10.60;99.90
64396;DHT22;50717;53.360;6.290;2023-10-31T00:19:52;10.80;99.90
64396;DHT22;50717;53.360;6.290;2023-10-31T00:22:18;9.90;99.90
64396;DHT22;50717;53.360;6.290;2023-10-31T00:24:45;10.70;99.90
64396;DHT22;50717;53.360;6.290;2023-10-31T00:27:10;10.50;99.90
64396;DHT22;50717;53.360;6.290;2023-10-31T00:29:36;10.50;99.90
64396;DHT22;50717;53.360;6.290;2023-10-31T00:32:02;10.80;99.90
64396;DHT22;50717;53.360;6.290;2023-10-31T00:34:28;10.00;99.90
64396;DHT22;50717;53.360;6.290;2023-10-31T00:36:53;10.50;99.90
64396;DHT22;50717;53.360;6.290;2023-10-31T00:39:19;10.40;99.90
64396;DHT22;50717;53.360;6.290;2023-10-31T00:41:44;10.80;99.90
64396;DHT22;50717;53.360;6.290;2023-10-31T00:44:12;10.70;99.90
64396;DHT22;50717;53.360;6.290;2023-10-31T00:46:37;10.30;99.90
64396;DHT22;50717;53.360;6.290;2023-10-31T00:49:03;10.50;99.90
64396;DHT22;50717;53.360;6.290;2023-10-31T00:51:29;10.00;99.90
64396;DHT22;50717;53.360;6.290;2023-10-31T00:53:55;10.60;99.90
64396;DHT22;50717;53.360;6.290;2023-10-31T00:56:20;9.90;99.90
64396;DHT22;50717;53.360;6.290;2023-10-31T00:58:46;10.30;99.90
64396;DHT22;50717;53.360;6.290;2023-10-31T01:01:12;10.10;99.90
64396;DHT22;50717;53.360;6.290;2023-10-31T01:03:37;10.20;99.90
64396;DHT22;50717;53.360;6.290;2023-10-31T01:06:03;10.30;99.90
64396;DHT22;50717;53.360;6.290;2023-10-31T01:08:29;10.50;99.90
64396;DHT22;50717;53.360;6.290;2023-10-31T01:10:55;9.70;99.90
64396;DHT22;50717;53.360;6.290;2023-10-31T01:13:21;10.30;99.90
64396;DHT22;50717;53.360;6.290;2023-10-31T01:15:46;9.90;99.90
64396;DHT22;50717;53.360;6.290;2023-10-31T01:18:12;10.00;99.90
64396;DHT22;50717;53.360;6.290;2023-10-31T01:20:38;10.70;99.90
64396;DHT22;50717;53.360;6.290;2023-10-31T01:23:04;9.90;99.90
64396;DHT22;50717;53.360;6.290;2023-10-31T01:25:29;9.70;99.90
64396;DHT22;50717;53.360;6.290;2023-10-31T01:27:55;9.60;99.90
64396;DHT22;50717;53.360;6.290;2023-10-31T01:30:21;9.80;99.90
64396;DHT22;50717;53.360;6.290;2023-10-31T01:32:46;10.20;99.90
64396;DHT22;50717;53.360;6.290;2023-10-31T01:35:12;9.90;99.90
64396;DHT22;50717;53.360;6.290;2023-10-31T01:37:38;10.70;99.90
64396;DHT22;50717;53.360;6.290;2023-10-31T01:40:04;9.80;99.90
64396;DHT22;50717;53.360;6.290;2023-10-31T01:42:30;10.30;99.90
64396;DHT22;50717;53.360;6.290;2023-10-31T01:44:56;10.20;99.90
64396;DHT22;50717;53.360;6.290;2023-10-31T01:47:22;9.80;99.90
64396;DHT22;50717;53.360;6.290;2023-10-31T01:49:49;10.10;99.90
64396;DHT22;50717;53.360;6.290;2023-10-31T01:52:16;9.70;99.90
64396;DHT22;50717;53.360;6.290;2023-10-31T01:54:43;10.30;99.90
64396;DHT22;50717;53.360;6.290;2023-10-31T01:57:09;10.60;99.90
64396;DHT22;50717;53.360;6.290;2023-10-31T01:59:35;9.90;99.90
64396;DHT22;50717;53.360;6.290;2023-10-31T02:02:01;10.20;99.90
64396;DHT22;50717;53.360;6.290;2023-10-31T02:04:27;10.20;99.90
64396;DHT22;50717;53.360;6.290;2023-10-31T02:06:53;9.70;99.90
64396;DHT22;50717;53.360;6.290;2023-10-31T02:09:19;9.60;99.90
64396;DHT22;50717;53.360;6.290;2023-10-31T02:11:45;10.10;99.90
64396;DHT22;50717;53.360;6.290;2023-10-31T02:14:11;10.00;99.90
64396;DHT22;50717;53.360;6.290;2023-10-31T02:16:36;9.80;99.90
64396;DHT22;50717;53.360;6.290;2023-10-31T02:19:03;10.50;99.90
64396;DHT22;50717;53.360;6.290;2023-10-31T02:21:29;10.30;99.90
64396;DHT22;50717;53.360;6.290;2023-10-31T02:23:59;10.00;99.90
64396;DHT22;50717;53.360;6.290;2023-10-31T02:26:30;9.80;99.90
64396;DHT22;50717;53.360;6.290;2023-10-31T02:28:55;10.20;99.90
64396;DHT22;50717;53.360;6.290;2023-10-31T02:31:21;9.80;99.90
64396;DHT22;50717;53.360;6.290;2023-10-31T02:33:47;10.40;99.90
64396;DHT22;50717;53.360;6.290;2023-10-31T02:36:13;9.80;99.90
64396;DHT22;50717;53.360;6.290;2023-10-31T02:38:39;10.20;99.90
64396;DHT22;50717;53.360;6.290;2023-10-31T02:41:05;9.80;99.90
64396;DHT22;50717;53.360;6.290;2023-10-31T02:43:31;10.40;99.90
64396;DHT22;50717;53.360;6.290;2023-10-31T02:45:56;10.30;99.90
64396;DHT22;50717;53.360;6.290;2023-10-31T02:48:22;10.40;99.90
64396;DHT22;50717;53.360;6.290;2023-10-31T02:50:49;10.10;99.90
64396;DHT22;50717;53.360;6.290;2023-10-31T02:53:14;9.90;99.90
64396;DHT22;50717;53.360;6.290;2023-10-31T02:55:40;10.30;99.90
64396;DHT22;50717;53.360;6.290;2023-10-31T02:58:06;9.60;99.90
64396;DHT22;50717;53.360;6.290;2023-10-31T03:00:31;9.80;99.90
64396;DHT22;50717;53.360;6.290;2023-10-31T03:02:57;9.90;99.90
64396;DHT22;50717;53.360;6.290;2023-10-31T03:05:23;9.80;99.90
64396;DHT22;50717;53.360;6.290;2023-10-31T03:07:48;10.00;99.90
64396;DHT22;50717;53.360;6.290;2023-10-31T03:10:14;10.60;99.90
64396;DHT22;50717;53.360;6.290;2023-10-31T03:12:40;10.80;99.90
64396;DHT22;50717;53.360;6.290;2023-10-31T03:15:07;9.90;99.90
64396;DHT22;50717;53.360;6.290;2023-10-31T03:17:32;10.60;99.90
64396;DHT22;50717;53.360;6.290;2023-10-31T03:19:58;10.00;99.90
64396;DHT22;50717;53.360;6.290;2023-10-31T03:22:24;9.80;99.90
64396;DHT22;50717;53.360;6.290;2023-10-31T03:24:49;10.40;99.90
64396;DHT22;50717;53.360;6.290;2023-10-31T03:27:15;10.00;99.90
64396;DHT22;50717;53.360;6.290;2023-10-31T03:29:41;10.50;99.90
64396;DHT22;50717;53.360;6.290;2023-10-31T03:32:06;10.00;99.90
64396;DHT22;50717;53.360;6.290;2023-10-31T03:34:32;10.00;99.90
64396;DHT22;50717;53.360;6.290;2023-10-31T03:36:58;10.00;99.90
64396;DHT22;50717;53.360;6.290;2023-10-31T03:39:23;11.00;99.90
64396;DHT22;50717;53.360;6.290;2023-10-31T03:41:49;9.90;99.90
64396;DHT22;50717;53.360;6.290;2023-10-31T03:44:15;10.90;99.90
64396;DHT22;50717;53.360;6.290;2023-10-31T03:46:40;10.70;99.90
64396;DHT22;50717;53.360;6.290;2023-10-31T03:49:06;10.20;99.90
64396;DHT22;50717;53.360;6.290;2023-10-31T03:51:33;10.20;99.90
64396;DHT22;50717;53.360;6.290;2023-10-31T03:53:59;10.60;99.90
64396;DHT22;50717;53.360;6.290;2023-10-31T03:56:25;9.90;99.90
64396;DHT22;50717;53.360;6.290;2023-10-31T03:58:51;10.00;99.90
64396;DHT22;50717;53.360;6.290;2023-10-31T04:01:16;9.70;99.90
64396;DHT22;50717;53.360;6.290;2023-10-31T04:03:42;10.40;99.90
64396;DHT22;50717;53.360;6.290;2023-10-31T04:06:08;10.50;99.90
64396;DHT22;50717;53.360;6.290;2023-10-31T04:08:34;9.90;99.90
64396;DHT22;50717;53.360;6.290;2023-10-31T04:10:59;10.60;99.90
64396;DHT22;50717;53.360;6.290;2023-10-31T04:13:25;10.10;99.90
64396;DHT22;50717;53.360;6.290;2023-10-31T04:15:51;10.60;99.90
64396;DHT22;50717;53.360;6.290;2023-10-31T04:18:16;10.20;99.90
64396;DHT22;50717;53.360;6.290;2023-10-31T04:20:42;10.50;99.90
64396;DHT22;50717;53.360;6.290;2023-10-31T04:23:08;10.30;99.90
64396;DHT22;50717;53.360;6.290;2023-10-31T04:25:34;9.90;99.90
64396;DHT22;50717;53.360;6.290;2023-10-31T04:27:59;10.70;99.90
64396;DHT22;50717;53.360;6.290;2023-10-31T04:30:25;9.60;99.90
64396;DHT22;50717;53.360;6.290;2023-10-31T04:32:51;11.20;99.90
64396;DHT22;50717;53.360;6.290;2023-10-31T04:35:17;9.80;99.90
64396;DHT22;50717;53.360;6.290;2023-10-31T04:37:43;10.60;99.90
64396;DHT22;50717;53.360;6.290;2023-10-31T04:40:10;9.80;99.90
64396;DHT22;50717;53.360;6.290;2023-10-31T04:42:38;9.50;99.90
64396;DHT22;50717;53.360;6.290;2023-10-31T04:45:04;10.30;99.90
64396;DHT22;50717;53.360;6.290;2023-10-31T04:47:30;10.30;99.90
64396;DHT22;50717;53.360;6.290;2023-10-31T04:49:55;9.50;99.90
64396;DHT22;50717;53.360;6.290;2023-10-31T04:52:21;9.40;99.90
64396;DHT22;50717;53.360;6.290;2023-10-31T04:54:48;10.60;99.90
64396;DHT22;50717;53.360;6.290;2023-10-31T04:57:14;10.10;99.90
64396;DHT22;50717;53.360;6.290;2023-10-31T04:59:39;9.80;99.90
64396;DHT22;50717;53.360;6.290;2023-10-31T05:02:05;10.80;99.90
64396;DHT22;50717;53.360;6.290;2023-10-31T05:04:30;9.90;99.90
64396;DHT22;50717;53.360;6.290;2023-10-31T05:06:56;9.70;99.90
64396;DHT22;50717;53.360;6.290;2023-10-31T05:09:22;9.50;99.90
64396;DHT22;50717;53.360;6.290;2023-10-31T05:11:48;9.80;99.90
64396;DHT22;50717;53.360;6.290;2023-10-31T05:14:14;10.60;99.90
64396;DHT22;50717;53.360;6.290;2023-10-31T05:16:43;9.90;99.90
64396;DHT22;50717;53.360;6.290;2023-10-31T05:19:10;10.20;99.90
64396;DHT22;50717;53.360;6.290;2023-10-31T05:21:35;9.90;99.90
64396;DHT22;50717;53.360;6.290;2023-10-31T05:24:01;9.50;99.90
64396;DHT22;50717;53.360;6.290;2023-10-31T05:26:27;10.50;99.90
64396;DHT22;50717;53.360;6.290;2023-10-31T05:28:55;9.70;99.90
64396;DHT22;50717;53.360;6.290;2023-10-31T05:31:21;10.20;99.90
64396;DHT22;50717;53.360;6.290;2023-10-31T05:33:47;9.50;99.90
64396;DHT22;50717;53.360;6.290;2023-10-31T05:36:22;10.00;99.90
64396;DHT22;50717;53.360;6.290;2023-10-31T05:38:48;10.70;99.90
64396;DHT22;50717;53.360;6.290;2023-10-31T05:41:14;10.20;99.90
64396;DHT22;50717;53.360;6.290;2023-10-31T05:43:40;9.80;99.90
64396;DHT22;50717;53.360;6.290;2023-10-31T05:46:06;9.70;99.90
64396;DHT22;50717;53.360;6.290;2023-10-31T05:48:37;10.80;99.90
64396;DHT22;50717;53.360;6.290;2023-10-31T05:51:05;9.80;99.90
64396;DHT22;50717;53.360;6.290;2023-10-31T05:53:35;10.90;99.90
64396;DHT22;50717;53.360;6.290;2023-10-31T05:56:01;10.10;99.90
64396;DHT22;50717;53.360;6.290;2023-10-31T05:58:27;10.60;99.90
64396;DHT22;50717;53.360;6.290;2023-10-31T06:00:52;10.30;99.90
64396;DHT22;50717;53.360;6.290;2023-10-31T06:03:18;10.50;99.90
64396;DHT22;50717;53.360;6.290;2023-10-31T06:05:44;10.00;99.90
64396;DHT22;50717;53.360;6.290;2023-10-31T06:08:11;10.80;99.90
64396;DHT22;50717;53.360;6.290;2023-10-31T06:10:37;10.70;99.90
64396;DHT22;50717;53.360;6.290;2023-10-31T06:13:02;9.80;99.90
64396;DHT22;50717;53.360;6.290;2023-10-31T06:15:28;10.20;99.90
64396;DHT22;50717;53.360;6.290;2023-10-31T06:17:53;10.10;99.90
64396;DHT22;50717;53.360;6.290;2023-10-31T06:20:19;9.70;99.90
64396;DHT22;50717;53.360;6.290;2023-10-31T06:22:45;10.70;99.90
64396;DHT22;50717;53.360;6.290;2023-10-31T06:25:10;10.40;99.90
64396;DHT22;50717;53.360;6.290;2023-10-31T06:27:36;10.40;99.90
64396;DHT22;50717;53.360;6.290;2023-10-31T06:30:02;9.70;99.90
64396;DHT22;50717;53.360;6.290;2023-10-31T06:32:28;9.70;99.90
64396;DHT22;50717;53.360;6.290;2023-10-31T06:34:53;10.80;99.90
64396;DHT22;50717;53.360;6.290;2023-10-31T06:37:19;10.50;99.90
64396;DHT22;50717;53.360;6.290;2023-10-31T06:39:45;11.10;99.90
64396;DHT22;50717;53.360;6.290;2023-10-31T06:42:11;10.90;99.90
64396;DHT22;50717;53.360;6.290;2023-10-31T06:44:36;11.00;99.90
64396;DHT22;50717;53.360;6.290;2023-10-31T06:47:02;10.20;99.90
64396;DHT22;50717;53.360;6.290;2023-10-31T06:49:28;10.20;99.90
64396;DHT22;50717;53.360;6.290;2023-10-31T06:51:53;10.60;99.90
64396;DHT22;50717;53.360;6.290;2023-10-31T06:54:19;9.90;99.90
64396;DHT22;50717;53.360;6.290;2023-10-31T06:56:45;11.10;99.90
64396;DHT22;50717;53.360;6.290;2023-10-31T06:59:10;10.60;99.90
64396;DHT22;50717;53.360;6.290;2023-10-31T07:01:36;9.70;99.90
64396;DHT22;50717;53.360;6.290;2023-10-31T07:04:03;10.20;99.90
64396;DHT22;50717;53.360;6.290;2023-10-31T07:06:29;10.60;99.90
64396;DHT22;50717;53.360;6.290;2023-10-31T07:08:54;9.90;99.90
64396;DHT22;50717;53.360;6.290;2023-10-31T07:11:20;10.50;99.90
64396;DHT22;50717;53.360;6.290;2023-10-31T07:13:46;10.30;99.90
64396;DHT22;50717;53.360;6.290;2023-10-31T07:16:12;11.50;99.90
64396;DHT22;50717;53.360;6.290;2023-10-31T07:18:38;10.30;99.90
64396;DHT22;50717;53.360;6.290;2023-10-31T07:21:04;10.10;99.90
64396;DHT22;50717;53.360;6.290;2023-10-31T07:23:29;11.10;99.90
64396;DHT22;50717;53.360;6.290;2023-10-31T07:25:55;10.70;99.90
64396;DHT22;50717;53.360;6.290;2023-10-31T07:28:21;10.80;99.90
64396;DHT22;50717;53.360;6.290;2023-10-31T07:30:46;10.80;99.90
64396;DHT22;50717;53.360;6.290;2023-10-31T07:33:12;11.30;99.90
64396;DHT22;50717;53.360;6.290;2023-10-31T07:35:37;10.90;99.90
64396;DHT22;50717;53.360;6.290;2023-10-31T07:38:03;10.70;99.90
64396;DHT22;50717;53.360;6.290;2023-10-31T07:40:29;11.30;99.90
64396;DHT22;50717;53.360;6.290;2023-10-31T07:42:54;10.10;99.90
64396;DHT22;50717;53.360;6.290;2023-10-31T07:45:20;11.40;99.90
64396;DHT22;50717;53.360;6.290;2023-10-31T07:47:46;10.50;99.90
64396;DHT22;50717;53.360;6.290;2023-10-31T07:50:11;11.40;99.90
64396;DHT22;50717;53.360;6.290;2023-10-31T07:52:38;10.30;99.90
64396;DHT22;50717;53.360;6.290;2023-10-31T07:55:04;11.50;99.90
64396;DHT22;50717;53.360;6.290;2023-10-31T07:57:30;10.40;99.90
64396;DHT22;50717;53.360;6.290;2023-10-31T07:59:56;11.20;99.90
64396;DHT22;50717;53.360;6.290;2023-10-31T08:02:21;10.60;99.90
64396;DHT22;50717;53.360;6.290;2023-10-31T08:04:47;11.80;99.90
64396;DHT22;50717;53.360;6.290;2023-10-31T08:07:13;11.80;99.90
64396;DHT22;50717;53.360;6.290;2023-10-31T08:09:38;12.10;99.90
64396;DHT22;50717;53.360;6.290;2023-10-31T08:12:04;11.70;99.90
64396;DHT22;50717;53.360;6.290;2023-10-31T08:14:30;11.60;99.90
64396;DHT22;50717;53.360;6.290;2023-10-31T08:16:56;10.80;99.90
64396;DHT22;50717;53.360;6.290;2023-10-31T08:19:21;11.30;99.90
64396;DHT22;50717;53.360;6.290;2023-10-31T08:21:47;11.30;99.90
64396;DHT22;50717;53.360;6.290;2023-10-31T08:24:12;11.20;99.90
64396;DHT22;50717;53.360;6.290;2023-10-31T08:26:39;11.20;99.90
64396;DHT22;50717;53.360;6.290;2023-10-31T08:29:04;10.90;99.90
64396;DHT22;50717;53.360;6.290;2023-10-31T08:31:30;10.90;99.90
64396;DHT22;50717;53.360;6.290;2023-10-31T08:33:56;11.40;99.90
64396;DHT22;50717;53.360;6.290;2023-10-31T08:36:21;11.20;99.90
64396;DHT22;50717;53.360;6.290;2023-10-31T08:38:47;11.80;99.90
64396;DHT22;50717;53.360;6.290;2023-10-31T08:41:14;10.70;99.90
64396;DHT22;50717;53.360;6.290;2023-10-31T08:43:46;11.20;99.90
64396;DHT22;50717;53.360;6.290;2023-10-31T08:46:11;10.40;99.90
64396;DHT22;50717;53.360;6.290;2023-10-31T08:48:37;11.20;99.90
64396;DHT22;50717;53.360;6.290;2023-10-31T08:51:04;11.10;99.90
64396;DHT22;50717;53.360;6.290;2023-10-31T08:53:29;10.90;99.90
64396;DHT22;50717;53.360;6.290;2023-10-31T08:55:55;10.80;99.90
64396;DHT22;50717;53.360;6.290;2023-10-31T08:58:22;10.90;99.90
64396;DHT22;50717;53.360;6.290;2023-10-31T09:00:47;11.50;99.90
64396;DHT22;50717;53.360;6.290;2023-10-31T09:03:13;10.80;99.90
64396;DHT22;50717;53.360;6.290;2023-10-31T09:05:40;10.70;99.90
64396;DHT22;50717;53.360;6.290;2023-10-31T09:08:06;11.20;99.90
64396;DHT22;50717;53.360;6.290;2023-10-31T09:10:32;11.00;99.90
64396;DHT22;50717;53.360;6.290;2023-10-31T09:12:58;11.30;99.90
64396;DHT22;50717;53.360;6.290;2023-10-31T09:15:24;11.00;99.90
64396;DHT22;50717;53.360;6.290;2023-10-31T09:17:49;11.00;99.90
64396;DHT22;50717;53.360;6.290;2023-10-31T09:20:15;11.20;99.90
64396;DHT22;50717;53.360;6.290;2023-10-31T09:22:40;11.40;99.90
64396;DHT22;50717;53.360;6.290;2023-10-31T09:25:06;11.00;99.90
64396;DHT22;50717;53.360;6.290;2023-10-31T09:27:32;11.20;99.90
64396;DHT22;50717;53.360;6.290;2023-10-31T09:29:58;11.20;99.90
64396;DHT22;50717;53.360;6.290;2023-10-31T09:32:23;11.50;99.90
64396;DHT22;50717;53.360;6.290;2023-10-31T09:34:49;11.70;99.90
64396;DHT22;50717;53.360;6.290;2023-10-31T09:37:15;11.50;99.90
64396;DHT22;50717;53.360;6.290;2023-10-31T09:39:40;11.30;99.90
64396;DHT22;50717;53.360;6.290;2023-10-31T09:42:07;11.10;99.90
64396;DHT22;50717;53.360;6.290;2023-10-31T09:44:33;11.20;99.90
64396;DHT22;50717;53.360;6.290;2023-10-31T09:47:00;11.50;99.90
64396;DHT22;50717;53.360;6.290;2023-10-31T09:49:26;11.40;99.90
64396;DHT22;50717;53.360;6.290;2023-10-31T09:51:53;11.40;99.90
64396;DHT22;50717;53.360;6.290;2023-10-31T09:54:19;11.30;99.90
64396;DHT22;50717;53.360;6.290;2023-10-31T09:56:45;11.30;99.90
64396;DHT22;50717;53.360;6.290;2023-10-31T09:59:11;11.60;99.90
64396;DHT22;50717;53.360;6.290;2023-10-31T10:01:36;11.30;99.90
64396;DHT22;50717;53.360;6.290;2023-10-31T10:04:02;11.30;99.90
64396;DHT22;50717;53.360;6.290;2023-10-31T10:06:28;11.60;99.90
64396;DHT22;50717;53.360;6.290;2023-10-31T10:08:55;11.40;99.90
64396;DHT22;50717;53.360;6.290;2023-10-31T10:11:22;11.60;99.90
64396;DHT22;50717;53.360;6.290;2023-10-31T10:13:47;11.40;99.90
64396;DHT22;50717;53.360;6.290;2023-10-31T10:16:28;11.70;99.90
64396;DHT22;50717;53.360;6.290;2023-10-31T10:19:19;11.70;99.90
64396;DHT22;50717;53.360;6.290;2023-10-31T10:21:53;11.80;99.90
64396;DHT22;50717;53.360;6.290;2023-10-31T10:24:22;11.90;99.90
64396;DHT22;50717;53.360;6.290;2023-10-31T10:26:48;11.30;99.90
64396;DHT22;50717;53.360;6.290;2023-10-31T10:29:15;11.60;99.90
64396;DHT22;50717;53.360;6.290;2023-10-31T10:31:41;12.00;99.90
64396;DHT22;50717;53.360;6.290;2023-10-31T10:34:08;12.10;99.90
64396;DHT22;50717;53.360;6.290;2023-10-31T10:36:34;11.60;99.90
64396;DHT22;50717;53.360;6.290;2023-10-31T10:39:00;12.20;99.90
64396;DHT22;50717;53.360;6.290;2023-10-31T10:41:28;12.00;99.90
64396;DHT22;50717;53.360;6.290;2023-10-31T10:44:06;11.80;99.90
64396;DHT22;50717;53.360;6.290;2023-10-31T10:46:36;12.20;99.90
64396;DHT22;50717;53.360;6.290;2023-10-31T10:49:06;11.90;99.90
64396;DHT22;50717;53.360;6.290;2023-10-31T10:54:34;12.30;99.90
64396;DHT22;50717;53.360;6.290;2023-10-31T10:57:32;11.90;99.90
64396;DHT22;50717;53.360;6.290;2023-10-31T11:00:04;12.30;99.90
64396;DHT22;50717;53.360;6.290;2023-10-31T11:02:32;12.20;99.90
64396;DHT22;50717;53.360;6.290;2023-10-31T11:04:58;11.90;99.90
64396;DHT22;50717;53.360;6.290;2023-10-31T11:07:25;12.80;99.90
64396;DHT22;50717;53.360;6.290;2023-10-31T11:09:54;12.10;99.90
64396;DHT22;50717;53.360;6.290;2023-10-31T11:12:22;12.30;99.90
64396;DHT22;50717;53.360;6.290;2023-10-31T11:14:48;12.40;99.90
64396;DHT22;50717;53.360;6.290;2023-10-31T11:17:24;12.20;99.90
64396;DHT22;50717;53.360;6.290;2023-10-31T11:19:51;12.30;99.90
64396;DHT22;50717;53.360;6.290;2023-10-31T11:22:18;12.10;99.90
64396;DHT22;50717;53.360;6.290;2023-10-31T11:24:44;12.10;99.90
64396;DHT22;50717;53.360;6.290;2023-10-31T11:27:10;12.40;99.90
64396;DHT22;50717;53.360;6.290;2023-10-31T11:29:36;12.00;99.90
64396;DHT22;50717;53.360;6.290;2023-10-31T11:32:02;11.70;99.90
64396;DHT22;50717;53.360;6.290;2023-10-31T11:34:31;12.20;99.90
64396;DHT22;50717;53.360;6.290;2023-10-31T11:37:25;12.20;99.90
64396;DHT22;50717;53.360;6.290;2023-10-31T11:42:47;12.00;99.90
64396;DHT22;50717;53.360;6.290;2023-10-31T11:45:13;12.00;99.90
64396;DHT22;50717;53.360;6.290;2023-10-31T11:47:50;12.00;99.90
64396;DHT22;50717;53.360;6.290;2023-10-31T11:50:17;11.50;99.90
64396;DHT22;50717;53.360;6.290;2023-10-31T11:52:43;11.50;99.90
64396;DHT22;50717;53.360;6.290;2023-10-31T11:55:12;11.10;99.90
64396;DHT22;50717;53.360;6.290;2023-10-31T11:57:41;11.00;99.90
64396;DHT22;50717;53.360;6.290;2023-10-31T12:00:07;11.10;99.90
64396;DHT22;50717;53.360;6.290;2023-10-31T12:03:00;11.10;99.90
64396;DHT22;50717;53.360;6.290;2023-10-31T12:05:26;11.10;99.90
64396;DHT22;50717;53.360;6.290;2023-10-31T12:07:51;11.10;99.90
64396;DHT22;50717;53.360;6.290;2023-10-31T12:10:28;10.60;99.90
64396;DHT22;50717;53.360;6.290;2023-10-31T12:12:58;10.90;99.90
64396;DHT22;50717;53.360;6.290;2023-10-31T12:15:24;10.80;99.90
64396;DHT22;50717;53.360;6.290;2023-10-31T12:17:50;11.10;99.90
64396;DHT22;50717;53.360;6.290;2023-10-31T12:20:16;11.10;99.90
64396;DHT22;50717;53.360;6.290;2023-10-31T12:22:43;10.60;99.90
64396;DHT22;50717;53.360;6.290;2023-10-31T12:25:10;10.70;99.90
64396;DHT22;50717;53.360;6.290;2023-10-31T12:27:43;10.90;99.90
64396;DHT22;50717;53.360;6.290;2023-10-31T12:30:11;10.70;99.90
64396;DHT22;50717;53.360;6.290;2023-10-31T12:32:37;10.70;99.90
64396;DHT22;50717;53.360;6.290;2023-10-31T12:35:04;10.20;99.90
64396;DHT22;50717;53.360;6.290;2023-10-31T12:37:30;10.70;99.90
64396;DHT22;50717;53.360;6.290;2023-10-31T12:39:56;10.60;99.90
64396;DHT22;50717;53.360;6.290;2023-10-31T12:42:22;11.00;99.90
64396;DHT22;50717;53.360;6.290;2023-10-31T12:44:55;10.60;99.90
64396;DHT22;50717;53.360;6.290;2023-10-31T12:47:23;10.70;99.90
64396;DHT22;50717;53.360;6.290;2023-10-31T12:50:08;11.00;99.90
64396;DHT22;50717;53.360;6.290;2023-10-31T12:52:54;10.80;99.90
64396;DHT22;50717;53.360;6.290;2023-10-31T12:55:28;10.80;99.90
64396;DHT22;50717;53.360;6.290;2023-10-31T12:57:57;11.00;99.90
64396;DHT22;50717;53.360;6.290;2023-10-31T13:00:34;11.00;99.90
64396;DHT22;50717;53.360;6.290;2023-10-31T13:03:05;11.10;99.90
64396;DHT22;50717;53.360;6.290;2023-10-31T13:05:31;10.80;99.90
64396;DHT22;50717;53.360;6.290;2023-10-31T13:07:58;11.10;99.90
64396;DHT22;50717;53.360;6.290;2023-10-31T13:10:27;10.90;99.90
64396;DHT22;50717;53.360;6.290;2023-10-31T13:12:53;11.20;99.90
64396;DHT22;50717;53.360;6.290;2023-10-31T13:15:20;10.90;99.90
64396;DHT22;50717;53.360;6.290;2023-10-31T13:17:47;11.40;99.90
64396;DHT22;50717;53.360;6.290;2023-10-31T13:20:14;11.10;99.90
64396;DHT22;50717;53.360;6.290;2023-10-31T13:22:41;10.90;99.90
64396;DHT22;50717;53.360;6.290;2023-10-31T13:25:11;11.00;99.90
64396;DHT22;50717;53.360;6.290;2023-10-31T13:27:39;10.70;99.90
64396;DHT22;50717;53.360;6.290;2023-10-31T13:30:06;11.00;99.90
64396;DHT22;50717;53.360;6.290;2023-10-31T13:32:34;11.10;99.90
64396;DHT22;50717;53.360;6.290;2023-10-31T13:35:00;10.60;99.90
64396;DHT22;50717;53.360;6.290;2023-10-31T13:37:26;11.00;99.90
64396;DHT22;50717;53.360;6.290;2023-10-31T13:39:52;11.50;99.90
64396;DHT22;50717;53.360;6.290;2023-10-31T13:42:17;11.20;99.90
64396;DHT22;50717;53.360;6.290;2023-10-31T13:44:44;11.10;99.90
64396;DHT22;50717;53.360;6.290;2023-10-31T13:47:10;11.30;99.90
64396;DHT22;50717;53.360;6.290;2023-10-31T13:49:38;11.50;99.90
64396;DHT22;50717;53.360;6.290;2023-10-31T13:52:04;11.40;99.90
64396;DHT22;50717;53.360;6.290;2023-10-31T13:54:32;11.50;99.90
64396;DHT22;50717;53.360;6.290;2023-10-31T13:56:57;11.00;99.90
64396;DHT22;50717;53.360;6.290;2023-10-31T13:59:23;11.30;99.90
64396;DHT22;50717;53.360;6.290;2023-10-31T14:01:49;10.70;99.90
64396;DHT22;50717;53.360;6.290;2023-10-31T14:04:15;11.20;99.90
64396;DHT22;50717;53.360;6.290;2023-10-31T14:06:41;11.50;99.90
64396;DHT22;50717;53.360;6.290;2023-10-31T14:09:08;11.50;99.90
64396;DHT22;50717;53.360;6.290;2023-10-31T14:11:34;11.10;99.90
64396;DHT22;50717;53.360;6.290;2023-10-31T14:14:00;11.30;99.90
64396;DHT22;50717;53.360;6.290;2023-10-31T14:16:37;11.40;99.90
64396;DHT22;50717;53.360;6.290;2023-10-31T14:19:04;11.30;99.90
64396;DHT22;50717;53.360;6.290;2023-10-31T14:21:31;11.40;99.90
64396;DHT22;50717;53.360;6.290;2023-10-31T14:23:56;11.60;99.90
64396;DHT22;50717;53.360;6.290;2023-10-31T14:26:23;11.60;99.90
64396;DHT22;50717;53.360;6.290;2023-10-31T14:28:49;11.70;99.90
64396;DHT22;50717;53.360;6.290;2023-10-31T14:31:16;11.60;99.90
64396;DHT22;50717;53.360;6.290;2023-10-31T14:33:41;11.80;99.90
64396;DHT22;50717;53.360;6.290;2023-10-31T14:36:08;11.50;99.90
64396;DHT22;50717;53.360;6.290;2023-10-31T14:38:36;11.40;99.90
64396;DHT22;50717;53.360;6.290;2023-10-31T14:41:01;11.20;99.90
64396;DHT22;50717;53.360;6.290;2023-10-31T14:43:29;11.40;99.90
64396;DHT22;50717;53.360;6.290;2023-10-31T14:45:54;11.50;99.90
64396;DHT22;50717;53.360;6.290;2023-10-31T14:48:21;11.10;99.90
64396;DHT22;50717;53.360;6.290;2023-10-31T14:50:47;11.00;99.90
64396;DHT22;50717;53.360;6.290;2023-10-31T14:53:16;11.00;99.90
64396;DHT22;50717;53.360;6.290;2023-10-31T14:55:43;11.10;99.90
64396;DHT22;50717;53.360;6.290;2023-10-31T14:58:09;10.80;99.90
64396;DHT22;50717;53.360;6.290;2023-10-31T15:00:35;11.10;99.90
64396;DHT22;50717;53.360;6.290;2023-10-31T15:03:01;10.70;99.90
64396;DHT22;50717;53.360;6.290;2023-10-31T15:05:27;10.80;99.90
64396;DHT22;50717;53.360;6.290;2023-10-31T15:07:52;11.10;99.90
64396;DHT22;50717;53.360;6.290;2023-10-31T15:10:19;10.60;99.90
64396;DHT22;50717;53.360;6.290;2023-10-31T15:12:48;10.80;99.90
64396;DHT22;50717;53.360;6.290;2023-10-31T15:15:15;10.80;99.90
64396;DHT22;50717;53.360;6.290;2023-10-31T15:17:40;10.60;99.90
64396;DHT22;50717;53.360;6.290;2023-10-31T15:20:07;10.20;99.90
64396;DHT22;50717;53.360;6.290;2023-10-31T15:22:36;10.80;99.90
64396;DHT22;50717;53.360;6.290;2023-10-31T15:25:02;10.80;99.90
64396;DHT22;50717;53.360;6.290;2023-10-31T15:27:28;10.70;99.90
64396;DHT22;50717;53.360;6.290;2023-10-31T15:29:53;10.40;99.90
64396;DHT22;50717;53.360;6.290;2023-10-31T15:32:19;10.70;99.90
64396;DHT22;50717;53.360;6.290;2023-10-31T15:34:45;10.50;99.90